Time;durP1;ratioP1;P1;durP2;ratioP2;P2;SDS_P1;SDS_P2;PMS_P1;PMS_P2;Temp;Humidity;BMP_temperature;BMP_pressure;BME280_temperature;BME280_humidity;BME280_pressure;Samples;Min_cycle;Max_cycle;Signal;HPM_P1;HPM_P2
2023/12/26 00:01:54;;;;;;;5.03;4.75;;;4.40;99.90;;;;;;5095311;28;20024;-76
2023/12/26 00:04:22;;;;;;;1.17;1.17;;;4.40;99.90;;;;;;5092705;28;20095;-80
2023/12/26 00:06:49;;;;;;;0.10;0.10;;;4.40;99.90;;;;;;5094291;28;20020;-79
2023/12/26 00:09:15;;;;;;;0.10;0.10;;;4.40;99.90;;;;;;5093384;28;20066;-79
2023/12/26 00:11:46;;;;;;;0.10;0.10;;;4.40;99.90;;;;;;5092891;28;20024;-76
2023/12/26 00:14:13;;;;;;;0.10;0.10;;;4.40;99.90;;;;;;5095576;28;20035;-81
2023/12/26 00:16:42;;;;;;;0.00;0.00;;;4.40;99.90;;;;;;5096040;28;20039;-80
2023/12/26 00:19:08;;;;;;;0.10;0.10;;;4.40;99.90;;;;;;5112233;28;20062;-76
2023/12/26 00:21:34;;;;;;;0.73;0.73;;;4.40;99.90;;;;;;5115224;28;20042;-80
2023/12/26 00:24:00;;;;;;;0.10;0.10;;;4.40;99.90;;;;;;5113975;28;20023;-78
2023/12/26 00:26:28;;;;;;;0.10;0.10;;;4.40;99.90;;;;;;5121903;28;20023;-77
2023/12/26 00:28:55;;;;;;;0.70;0.70;;;4.40;99.90;;;;;;5112741;28;20020;-76
2023/12/26 00:31:21;;;;;;;18.63;17.20;;;4.40;99.90;;;;;;5115839;28;20020;-80
2023/12/26 00:33:53;;;;;;;0.10;0.10;;;4.40;99.90;;;;;;5110628;28;20091;-76
2023/12/26 00:36:20;;;;;;;0.10;0.10;;;4.50;99.90;;;;;;5116250;28;20015;-79
2023/12/26 00:38:47;;;;;;;0.10;0.10;;;4.40;99.90;;;;;;5104065;28;20027;-78
2023/12/26 00:41:14;;;;;;;0.10;0.10;;;4.40;99.90;;;;;;5121936;28;20023;-77
2023/12/26 00:43:40;;;;;;;5.70;5.38;;;4.30;99.90;;;;;;5122469;28;20027;-78
2023/12/26 00:46:06;;;;;;;0.10;0.10;;;4.30;99.90;;;;;;5122146;28;20073;-82
2023/12/26 00:48:33;;;;;;;0.00;0.00;;;4.20;99.90;;;;;;5085256;28;20019;-78
2023/12/26 00:50:58;;;;;;;0.10;0.10;;;4.20;99.90;;;;;;5124432;28;20087;-79
2023/12/26 00:53:24;;;;;;;0.00;0.00;;;4.20;99.90;;;;;;5114644;28;20051;-80
2023/12/26 00:55:50;;;;;;;0.10;0.10;;;4.20;99.90;;;;;;5112283;28;20027;-78
2023/12/26 00:58:16;;;;;;;1.33;1.30;;;4.30;99.90;;;;;;5112725;28;20034;-77
2023/12/26 01:00:42;;;;;;;0.10;0.10;;;4.30;99.90;;;;;;5109585;28;20032;-81
2023/12/26 01:03:09;;;;;;;0.38;0.38;;;4.20;99.90;;;;;;5112566;28;20092;-78
2023/12/26 01:05:35;;;;;;;0.00;0.00;;;4.20;99.90;;;;;;5113465;28;20425;-81
2023/12/26 01:08:01;;;;;;;2.75;2.63;;;4.20;99.90;;;;;;5114405;28;20034;-78
2023/12/26 01:10:26;;;;;;;0.10;0.10;;;4.20;99.90;;;;;;5113149;28;20023;-77
2023/12/26 01:12:52;;;;;;;0.75;0.75;;;4.20;99.90;;;;;;5110403;28;20048;-80
2023/12/26 01:15:18;;;;;;;0.10;0.10;;;4.20;99.90;;;;;;5109871;28;20100;-78
2023/12/26 01:17:47;;;;;;;0.10;0.10;;;4.20;99.90;;;;;;5111763;28;20523;-77
2023/12/26 01:20:13;;;;;;;0.05;0.05;;;4.20;99.90;;;;;;5114055;28;20145;-81
2023/12/26 01:22:38;;;;;;;0.05;0.05;;;4.10;99.90;;;;;;5112334;28;20516;-82
2023/12/26 01:25:05;;;;;;;0.10;0.10;;;4.10;99.90;;;;;;5112628;28;20046;-78
2023/12/26 01:27:33;;;;;;;0.00;0.00;;;4.10;99.90;;;;;;5114043;28;20043;-80
2023/12/26 01:30:02;;;;;;;0.00;0.00;;;4.10;99.90;;;;;;5111174;28;20027;-79
2023/12/26 01:32:28;;;;;;;0.63;0.63;;;4.10;99.90;;;;;;5114195;28;20137;-81
2023/12/26 01:34:54;;;;;;;0.15;0.15;;;4.10;99.90;;;;;;5114031;28;20015;-78
2023/12/26 01:37:19;;;;;;;1.10;0.95;;;4.00;99.90;;;;;;5112444;28;20015;-77
2023/12/26 01:39:45;;;;;;;1.75;1.65;;;4.10;99.90;;;;;;5123156;28;20031;-77
2023/12/26 01:42:11;;;;;;;0.10;0.10;;;4.10;99.90;;;;;;5121924;28;20026;-81
2023/12/26 01:44:37;;;;;;;0.10;0.10;;;4.10;99.90;;;;;;5116335;28;20019;-80
2023/12/26 01:47:04;;;;;;;0.43;0.43;;;4.10;99.90;;;;;;5118232;28;20031;-78
2023/12/26 01:49:30;;;;;;;0.10;0.10;;;4.00;99.90;;;;;;5115686;28;20562;-77
2023/12/26 01:51:58;;;;;;;0.20;0.20;;;4.10;99.90;;;;;;5094147;28;20106;-80
2023/12/26 01:54:30;;;;;;;0.10;0.10;;;4.10;99.90;;;;;;5110317;28;20039;-79
2023/12/26 01:56:56;;;;;;;0.20;0.20;;;4.10;99.90;;;;;;5117617;28;20520;-79
2023/12/26 01:59:23;;;;;;;0.00;0.00;;;4.10;99.90;;;;;;5113742;28;20055;-81
2023/12/26 02:01:49;;;;;;;0.10;0.10;;;3.50;99.90;;;;;;5122283;28;20019;-81
2023/12/26 02:04:16;;;;;;;0.10;0.10;;;4.10;99.90;;;;;;5116172;28;20015;-79
2023/12/26 02:06:42;;;;;;;0.10;0.10;;;4.10;99.90;;;;;;5124053;28;20068;-78
2023/12/26 02:09:11;;;;;;;0.10;0.10;;;4.10;99.90;;;;;;5121830;28;20034;-76
2023/12/26 02:11:40;;;;;;;0.10;0.10;;;4.00;99.90;;;;;;5115671;28;20019;-79
2023/12/26 02:14:07;;;;;;;0.00;0.00;;;3.90;99.90;;;;;;5113184;27;20164;-80
2023/12/26 02:16:37;;;;;;;0.20;0.20;;;3.90;99.90;;;;;;5111177;28;20047;-75
2023/12/26 02:19:03;;;;;;;0.10;0.10;;;3.80;99.90;;;;;;5117736;28;20054;-78
2023/12/26 02:21:29;;;;;;;0.08;0.08;;;3.80;99.90;;;;;;5122574;28;20028;-78
2023/12/26 02:24:01;;;;;;;0.20;0.20;;;3.80;99.90;;;;;;5113471;28;20031;-76
2023/12/26 02:26:30;;;;;;;0.10;0.10;;;3.70;99.90;;;;;;5094169;28;20081;-78
2023/12/26 02:28:58;;;;;;;2.75;2.65;;;3.70;99.90;;;;;;5112388;28;20060;-76
2023/12/26 02:31:25;;;;;;;0.20;0.20;;;3.70;99.90;;;;;;5096153;28;20015;-79
2023/12/26 02:33:52;;;;;;;0.10;0.10;;;3.70;99.90;;;;;;5094188;28;20051;-82
2023/12/26 02:36:18;;;;;;;0.10;0.10;;;3.60;99.90;;;;;;5118462;28;20030;-78
2023/12/26 02:38:43;;;;;;;0.20;0.20;;;3.60;99.90;;;;;;5115147;28;20311;-81
2023/12/26 02:41:09;;;;;;;0.10;0.10;;;3.50;99.90;;;;;;5115049;28;20505;-80
2023/12/26 02:43:35;;;;;;;0.10;0.10;;;3.50;99.90;;;;;;5111924;28;20523;-75
2023/12/26 02:46:01;;;;;;;0.10;0.10;;;3.50;99.90;;;;;;5120790;27;20046;-76
2023/12/26 02:48:26;;;;;;;2.33;2.22;;;3.60;99.90;;;;;;5135246;27;20675;-76
2023/12/26 02:50:53;;;;;;;7.70;7.00;;;3.50;99.90;;;;;;5136472;27;20469;-80
2023/12/26 02:53:19;;;;;;;0.10;0.10;;;3.60;99.90;;;;;;5137603;27;20075;-78
2023/12/26 02:55:47;;;;;;;0.10;0.10;;;3.60;99.90;;;;;;5130647;27;20110;-78
2023/12/26 02:58:12;;;;;;;0.15;0.15;;;3.60;99.90;;;;;;5132879;27;20149;-79
2023/12/26 03:00:38;;;;;;;0.10;0.10;;;3.60;99.90;;;;;;5136410;27;20050;-77
2023/12/26 03:03:07;;;;;;;0.20;0.20;;;3.60;99.90;;;;;;5142209;27;20052;-78
2023/12/26 03:05:33;;;;;;;0.10;0.10;;;3.60;99.90;;;;;;5140682;27;20098;-77
2023/12/26 03:07:59;;;;;;;0.20;0.20;;;3.60;99.90;;;;;;5142896;27;20038;-77
2023/12/26 03:10:26;;;;;;;1.05;1.05;;;3.60;99.90;;;;;;5139006;27;20015;-77
2023/12/26 03:12:52;;;;;;;0.10;0.10;;;3.60;99.90;;;;;;5134597;27;20042;-79
2023/12/26 03:15:18;;;;;;;0.00;0.00;;;3.60;99.90;;;;;;5132457;27;20567;-76
2023/12/26 03:17:44;;;;;;;0.10;0.10;;;3.60;99.90;;;;;;5096694;28;20057;-76
2023/12/26 03:20:10;;;;;;;0.00;0.00;;;4.70;99.90;;;;;;5112425;28;20024;-79
2023/12/26 03:22:36;;;;;;;0.10;0.10;;;3.60;99.90;;;;;;5113570;28;20497;-76
2023/12/26 03:25:02;;;;;;;0.00;0.00;;;3.50;99.90;;;;;;5099122;28;20055;-79
2023/12/26 03:27:29;;;;;;;0.10;0.10;;;3.40;99.90;;;;;;5119125;28;20023;-76
2023/12/26 03:29:55;;;;;;;0.10;0.10;;;3.90;99.90;;;;;;5115604;28;20016;-81
2023/12/26 03:32:21;;;;;;;1.45;1.45;;;3.40;99.90;;;;;;5115444;28;20023;-77
2023/12/26 03:34:47;;;;;;;2.10;2.00;;;3.40;99.90;;;;;;5116843;28;20027;-80
2023/12/26 03:37:13;;;;;;;0.10;0.10;;;3.30;99.90;;;;;;5111110;28;20019;-76
2023/12/26 03:39:38;;;;;;;0.10;0.10;;;3.30;99.90;;;;;;5112689;28;20136;-80
2023/12/26 03:42:05;;;;;;;0.10;0.10;;;3.30;99.90;;;;;;5118101;28;20016;-77
2023/12/26 03:44:31;;;;;;;0.10;0.10;;;3.30;99.90;;;;;;5113563;28;20026;-78
2023/12/26 03:46:57;;;;;;;0.10;0.10;;;3.30;99.90;;;;;;5114091;28;20028;-79
2023/12/26 03:49:22;;;;;;;0.10;0.10;;;3.30;99.90;;;;;;5112795;28;20019;-76
2023/12/26 03:51:48;;;;;;;0.10;0.10;;;4.70;99.90;;;;;;5112717;28;20016;-78
2023/12/26 03:54:15;;;;;;;0.05;0.05;;;3.40;99.90;;;;;;5115012;28;20677;-79
2023/12/26 03:56:41;;;;;;;0.20;0.20;;;3.40;99.90;;;;;;5115277;28;20024;-78
2023/12/26 03:59:07;;;;;;;0.10;0.10;;;3.40;99.90;;;;;;5096099;28;20031;-77
2023/12/26 04:01:33;;;;;;;0.43;0.43;;;3.40;99.90;;;;;;5116651;28;20322;-78
2023/12/26 04:04:02;;;;;;;0.08;0.08;;;3.50;99.90;;;;;;5118439;28;20076;-78
2023/12/26 04:06:29;;;;;;;0.17;0.17;;;3.50;99.90;;;;;;5111913;28;20039;-80
2023/12/26 04:08:54;;;;;;;0.10;0.10;;;3.50;99.90;;;;;;5113320;28;20092;-82
2023/12/26 04:11:20;;;;;;;0.10;0.10;;;5.40;99.90;;;;;;5094672;28;20038;-80
2023/12/26 04:13:46;;;;;;;0.10;0.10;;;3.50;99.90;;;;;;5115448;28;20050;-81
2023/12/26 04:16:12;;;;;;;0.10;0.10;;;3.50;99.90;;;;;;5116318;27;20026;-78
2023/12/26 04:18:38;;;;;;;0.10;0.10;;;3.50;99.90;;;;;;5117465;27;20032;-82
2023/12/26 04:21:04;;;;;;;0.10;0.10;;;4.50;99.90;;;;;;5134641;27;20774;-76
2023/12/26 04:23:30;;;;;;;0.10;0.10;;;3.40;99.90;;;;;;5133853;27;20011;-80
2023/12/26 04:25:56;;;;;;;0.10;0.10;;;3.40;99.90;;;;;;5136425;27;20084;-77
2023/12/26 04:28:23;;;;;;;0.00;0.00;;;3.40;99.90;;;;;;5132861;27;20045;-77
2023/12/26 04:30:49;;;;;;;0.10;0.10;;;3.40;99.90;;;;;;5135406;27;20031;-77
2023/12/26 04:33:15;;;;;;;0.10;0.10;;;3.40;99.90;;;;;;5135009;27;20084;-77
2023/12/26 04:35:41;;;;;;;0.10;0.10;;;3.30;99.90;;;;;;5132589;27;20442;-81
2023/12/26 04:38:06;;;;;;;0.10;0.10;;;3.30;99.90;;;;;;5134697;27;20034;-79
2023/12/26 04:40:32;;;;;;;0.10;0.10;;;3.30;99.90;;;;;;5135170;27;20019;-75
2023/12/26 04:43:08;;;;;;;0.10;0.10;;;3.40;99.90;;;;;;5141713;27;20051;-78
2023/12/26 04:45:36;;;;;;;0.10;0.10;;;3.30;99.90;;;;;;5133056;27;20007;-79
2023/12/26 04:48:07;;;;;;;0.20;0.20;;;3.30;99.90;;;;;;5129068;27;20019;-77
2023/12/26 04:50:34;;;;;;;0.10;0.10;;;3.40;99.90;;;;;;5128496;27;20119;-81
2023/12/26 04:53:01;;;;;;;0.73;0.73;;;3.30;99.90;;;;;;5114582;28;20757;-80
2023/12/26 04:55:27;;;;;;;3.03;2.88;;;3.30;99.90;;;;;;5111745;28;20164;-77
2023/12/26 04:57:52;;;;;;;0.10;0.10;;;3.30;99.90;;;;;;5112925;28;20369;-80
2023/12/26 05:00:18;;;;;;;0.20;0.20;;;3.20;99.90;;;;;;5111306;28;20065;-80
2023/12/26 05:02:44;;;;;;;0.80;0.80;;;3.20;99.90;;;;;;5108774;28;20046;-80
2023/12/26 05:05:10;;;;;;;0.15;0.15;;;3.30;99.90;;;;;;5108485;28;20088;-76
2023/12/26 05:07:36;;;;;;;0.08;0.08;;;3.20;99.90;;;;;;5118376;28;20027;-78
2023/12/26 05:10:02;;;;;;;0.20;0.20;;;3.10;99.90;;;;;;5119100;28;20012;-82
2023/12/26 05:12:28;;;;;;;0.10;0.10;;;3.10;99.90;;;;;;5110249;27;20050;-79
2023/12/26 05:14:54;;;;;;;0.10;0.10;;;3.10;99.90;;;;;;5105659;27;20023;-79
2023/12/26 05:17:20;;;;;;;0.10;0.10;;;3.10;99.90;;;;;;5143174;27;20054;-80
2023/12/26 05:19:46;;;;;;;0.10;0.10;;;3.10;99.90;;;;;;5130639;27;20033;-76
2023/12/26 05:22:13;;;;;;;0.00;0.00;;;3.00;99.90;;;;;;5144902;27;20089;-75
2023/12/26 05:24:40;;;;;;;0.10;0.10;;;3.00;99.90;;;;;;5150260;27;20019;-79
2023/12/26 05:27:12;;;;;;;0.00;0.00;;;2.90;99.90;;;;;;5151116;27;20007;-77
2023/12/26 05:29:43;;;;;;;0.10;0.10;;;3.00;99.90;;;;;;5148330;27;20086;-76
2023/12/26 05:32:34;;;;;;;1.65;1.65;;;3.00;99.90;;;;;;5149376;27;20027;-77
2023/12/26 05:35:02;;;;;;;0.10;0.10;;;3.00;99.90;;;;;;5151319;27;20064;-78
2023/12/26 05:37:31;;;;;;;0.10;0.10;;;3.00;99.90;;;;;;5151245;27;20059;-74
2023/12/26 05:39:58;;;;;;;0.10;0.10;;;3.00;99.90;;;;;;5150122;28;20576;-75
2023/12/26 05:42:26;;;;;;;0.10;0.10;;;3.00;99.90;;;;;;5145318;28;20040;-76
2023/12/26 05:44:52;;;;;;;0.10;0.10;;;3.00;99.90;;;;;;5132646;27;20023;-74
2023/12/26 05:47:20;;;;;;;57.67;41.30;;;3.00;99.90;;;;;;5152385;28;20007;-76
2023/12/26 05:49:46;;;;;;;0.00;0.00;;;3.10;99.90;;;;;;5134092;28;20090;-75
2023/12/26 05:52:12;;;;;;;0.10;0.10;;;3.10;99.90;;;;;;5150650;28;20030;-79
2023/12/26 05:54:40;;;;;;;0.10;0.10;;;3.10;99.90;;;;;;5150502;28;20089;-75
2023/12/26 05:57:06;;;;;;;0.10;0.10;;;3.20;99.90;;;;;;5142443;28;20047;-77
2023/12/26 05:59:32;;;;;;;0.20;0.20;;;3.20;99.90;;;;;;5144392;28;20023;-79
2023/12/26 06:01:57;;;;;;;0.10;0.10;;;3.20;99.90;;;;;;5149326;28;20019;-75
2023/12/26 06:04:26;;;;;;;0.10;0.10;;;3.30;99.90;;;;;;5127463;28;20015;-76
2023/12/26 06:06:55;;;;;;;0.10;0.10;;;2.80;99.90;;;;;;5146364;28;20007;-78
2023/12/26 06:09:28;;;;;;;0.10;0.10;;;3.20;99.90;;;;;;5149742;27;20023;-79
2023/12/26 06:11:54;;;;;;;0.97;0.97;;;3.20;99.90;;;;;;5151298;27;20059;-79
2023/12/26 06:14:22;;;;;;;0.20;0.20;;;3.20;99.90;;;;;;5149784;27;20353;-76
2023/12/26 06:16:53;;;;;;;0.10;0.10;;;3.20;99.90;;;;;;5152677;27;20023;-75
2023/12/26 06:19:19;;;;;;;0.10;0.10;;;3.10;99.90;;;;;;5154285;27;20059;-77
2023/12/26 06:21:55;;;;;;;0.10;0.10;;;3.10;99.90;;;;;;5149738;27;20023;-76
2023/12/26 06:24:21;;;;;;;0.20;0.20;;;1.50;99.90;;;;;;5149105;27;20100;-82
2023/12/26 06:26:48;;;;;;;0.95;0.95;;;3.00;99.90;;;;;;5132014;27;20043;-75
2023/12/26 06:29:20;;;;;;;0.10;0.10;;;2.90;99.90;;;;;;5150243;27;20516;-76
2023/12/26 06:31:53;;;;;;;0.20;0.20;;;2.90;99.90;;;;;;5154339;27;20027;-84
2023/12/26 06:34:19;;;;;;;0.20;0.20;;;2.80;99.90;;;;;;5160834;27;20019;-77
2023/12/26 06:36:47;;;;;;;0.38;0.38;;;2.90;99.90;;;;;;5149133;27;20035;-79
2023/12/26 06:39:13;;;;;;;0.10;0.10;;;3.00;99.90;;;;;;5146262;27;20027;-79
2023/12/26 06:41:41;;;;;;;0.10;0.10;;;3.00;99.90;;;;;;5143445;27;20038;-78
2023/12/26 06:44:07;;;;;;;0.10;0.10;;;3.00;99.90;;;;;;5144274;27;20038;-80
2023/12/26 06:46:42;;;;;;;0.10;0.10;;;2.90;99.90;;;;;;5144416;27;20035;-78
2023/12/26 06:49:09;;;;;;;0.10;0.10;;;2.80;99.90;;;;;;5121523;28;20020;-80
2023/12/26 06:51:39;;;;;;;0.10;0.10;;;2.70;99.90;;;;;;5121081;28;20265;-78
2023/12/26 06:54:05;;;;;;;0.10;0.10;;;2.80;99.90;;;;;;5126817;28;20031;-75
2023/12/26 06:56:31;;;;;;;0.10;0.10;;;2.80;99.90;;;;;;5110291;28;20039;-79
2023/12/26 06:58:58;;;;;;;0.70;0.70;;;2.80;99.90;;;;;;5127340;28;20071;-75
2023/12/26 07:01:24;;;;;;;0.10;0.10;;;2.80;99.90;;;;;;5128300;28;20023;-74
2023/12/26 07:04:00;;;;;;;0.10;0.10;;;2.80;99.90;;;;;;5131476;28;20035;-75
2023/12/26 07:06:35;;;;;;;;;;;2.80;99.90;;;;;;5130288;28;20024;-76
2023/12/26 07:09:20;;;;;;;0.00;0.00;;;2.70;99.90;;;;;;5123270;28;19908;-76
2023/12/26 07:11:46;;;;;;;0.10;0.10;;;2.70;99.90;;;;;;5119698;28;20043;-80
2023/12/26 07:14:12;;;;;;;0.10;0.10;;;2.80;99.90;;;;;;5126415;28;20055;-74
2023/12/26 07:16:38;;;;;;;0.10;0.10;;;2.80;99.90;;;;;;5118920;28;20028;-77
2023/12/26 07:19:07;;;;;;;19.90;18.63;;;2.80;99.90;;;;;;5135226;28;20098;-74
2023/12/26 07:21:33;;;;;;;0.10;0.10;;;2.70;99.90;;;;;;5129088;28;20022;-76
2023/12/26 07:23:59;;;;;;;3.60;3.50;;;2.80;99.90;;;;;;5130621;28;20051;-79
2023/12/26 07:26:31;;;;;;;0.10;0.10;;;2.80;99.90;;;;;;5128483;28;20071;-77
2023/12/26 07:28:57;;;;;;;0.10;0.10;;;0.10;99.90;;;;;;5114844;28;20036;-76
2023/12/26 07:31:23;;;;;;;0.10;0.10;;;2.80;99.90;;;;;;5121431;28;20500;-74
2023/12/26 07:33:53;;;;;;;43.85;14.48;;;2.80;99.90;;;;;;5119361;28;20088;-78
2023/12/26 07:36:20;;;;;;;0.10;0.10;;;2.90;99.90;;;;;;5111476;28;20090;-74
2023/12/26 07:38:49;;;;;;;0.10;0.10;;;3.00;99.90;;;;;;5117420;28;20759;-75
2023/12/26 07:41:15;;;;;;;0.10;0.10;;;3.10;99.90;;;;;;5115902;28;20265;-74
2023/12/26 07:43:41;;;;;;;0.10;0.10;;;3.20;99.90;;;;;;5116744;28;20028;-75
2023/12/26 07:46:07;;;;;;;0.17;0.17;;;3.50;99.90;;;;;;5115247;28;20689;-75
2023/12/26 07:48:33;;;;;;;0.45;0.45;;;3.40;99.90;;;;;;5115672;28;20020;-75
2023/12/26 07:51:04;;;;;;;0.10;0.10;;;3.40;99.90;;;;;;5117946;28;20035;-75
2023/12/26 07:53:32;;;;;;;0.10;0.10;;;3.50;99.90;;;;;;5112125;28;20026;-75
2023/12/26 07:56:00;;;;;;;0.10;0.10;;;3.50;99.90;;;;;;5113666;28;20046;-74
2023/12/26 07:58:25;;;;;;;0.03;0.03;;;3.60;99.90;;;;;;5120700;28;20062;-75
2023/12/26 08:00:51;;;;;;;0.10;0.10;;;3.80;99.90;;;;;;5116206;28;20031;-75
2023/12/26 08:03:19;;;;;;;0.10;0.10;;;3.80;99.90;;;;;;5121297;28;20016;-76
2023/12/26 08:05:45;;;;;;;0.10;0.10;;;3.90;99.90;;;;;;5119747;28;20053;-75
2023/12/26 08:08:11;;;;;;;15.45;14.15;;;4.00;99.90;;;;;;5118527;28;20030;-77
2023/12/26 08:10:47;;;;;;;9.20;8.77;;;4.20;99.90;;;;;;5124802;28;20011;-75
2023/12/26 08:13:13;;;;;;;0.17;0.17;;;2.00;99.90;;;;;;5122093;28;20043;-76
2023/12/26 08:15:39;;;;;;;1.83;1.80;;;5.10;99.90;;;;;;5089451;28;20427;-77
2023/12/26 08:18:06;;;;;;;0.10;0.10;;;5.30;99.90;;;;;;5111939;28;20019;-74
2023/12/26 08:20:37;;;;;;;0.20;0.20;;;5.40;99.90;;;;;;5098086;28;20034;-78
2023/12/26 08:23:03;;;;;;;0.10;0.10;;;5.50;99.90;;;;;;5115492;28;20043;-75
2023/12/26 08:25:38;;;;;;;0.10;0.10;;;5.50;99.90;;;;;;5118964;28;20019;-75
2023/12/26 08:28:06;;;;;;;0.10;0.10;;;5.60;99.90;;;;;;5114716;28;20019;-75
2023/12/26 08:30:32;;;;;;;0.08;0.08;;;5.40;99.90;;;;;;5110932;28;20020;-75
2023/12/26 08:32:58;;;;;;;0.10;0.10;;;5.40;99.90;;;;;;5107808;28;20031;-77
2023/12/26 08:35:24;;;;;;;0.20;0.20;;;5.30;99.90;;;;;;5111323;28;20020;-79
2023/12/26 08:37:51;;;;;;;0.08;0.08;;;5.00;99.90;;;;;;5105639;28;20724;-79
2023/12/26 08:40:22;;;;;;;0.10;0.10;;;5.50;99.90;;;;;;5103857;28;20031;-80
2023/12/26 08:42:48;;;;;;;3.10;2.90;;;;;;;;;;5107992;28;20024;-78
2023/12/26 08:45:23;;;;;;;0.10;0.10;;;5.70;99.90;;;;;;5088558;28;20024;-80
2023/12/26 08:47:52;;;;;;;0.10;0.10;;;5.90;99.90;;;;;;5113939;27;20014;-81
2023/12/26 08:50:19;;;;;;;0.17;0.17;;;;;;;;;;5126455;27;20035;-80
2023/12/26 08:52:46;;;;;;;7.70;7.43;;;6.20;99.90;;;;;;5132050;27;20022;-78
2023/12/26 08:55:16;;;;;;;0.10;0.10;;;6.20;99.90;;;;;;5138625;27;20197;-78
2023/12/26 08:57:42;;;;;;;0.00;0.00;;;6.30;99.90;;;;;;5123380;27;20113;-78
2023/12/26 09:00:12;;;;;;;0.10;0.10;;;8.50;99.90;;;;;;5127655;27;20039;-78
2023/12/26 09:02:38;;;;;;;0.08;0.08;;;9.20;99.90;;;;;;5127094;27;20015;-77
2023/12/26 09:05:04;;;;;;;0.10;0.10;;;9.00;99.90;;;;;;5127188;27;20698;-79
2023/12/26 09:07:32;;;;;;;0.20;0.20;;;8.70;99.90;;;;;;5128975;27;20053;-78
2023/12/26 09:10:11;;;;;;;0.10;0.10;;;8.80;99.90;;;;;;5121481;27;20672;-78
2023/12/26 09:12:38;;;;;;;0.20;0.20;;;8.80;99.90;;;;;;5136360;27;20027;-77
2023/12/26 09:15:18;;;;;;;0.20;0.20;;;8.80;99.90;;;;;;5137076;27;20054;-77
2023/12/26 09:17:43;;;;;;;0.20;0.20;;;8.70;99.90;;;;;;5141207;27;20043;-78
2023/12/26 09:20:10;;;;;;;0.32;0.32;;;8.60;99.90;;;;;;5139718;27;20065;-75
2023/12/26 09:22:39;;;;;;;0.20;0.20;;;8.70;99.90;;;;;;5121516;27;20023;-77
2023/12/26 09:25:07;;;;;;;8.65;8.30;;;8.80;99.90;;;;;;5134061;27;20087;-80
2023/12/26 09:27:34;;;;;;;0.20;0.20;;;8.90;99.90;;;;;;5102941;27;20016;-75
2023/12/26 09:30:01;;;;;;;0.20;0.20;;;9.00;99.90;;;;;;5115865;27;20531;-76
2023/12/26 09:32:36;;;;;;;0.30;0.30;;;9.10;99.90;;;;;;5137010;27;20102;-76
2023/12/26 09:35:06;;;;;;;0.60;0.60;;;9.20;99.90;;;;;;5139955;27;20113;-75
2023/12/26 09:37:38;;;;;;;2.75;2.65;;;9.30;99.90;;;;;;5139719;27;20559;-76
2023/12/26 09:40:14;;;;;;;0.30;0.30;;;9.40;99.90;;;;;;5097285;27;20032;-75
2023/12/26 09:42:41;;;;;;;0.15;0.15;;;9.30;99.90;;;;;;5143182;28;20019;-75
2023/12/26 09:45:40;;;;;;;0.20;0.20;;;9.50;99.90;;;;;;5146790;27;20011;-75
2023/12/26 09:48:09;;;;;;;11.90;4.38;;;9.60;99.90;;;;;;5084019;28;20040;-75
2023/12/26 09:50:42;;;;;;;2.78;2.67;;;9.70;99.90;;;;;;5061096;28;20032;-76
2023/12/26 09:53:27;;;;;;;0.80;0.80;;;9.90;99.90;;;;;;5083985;28;20035;-75
2023/12/26 09:55:54;;;;;;;1.48;1.42;;;10.00;99.90;;;;;;5083876;28;20678;-75
2023/12/26 09:58:22;;;;;;;0.40;0.40;;;10.20;99.90;;;;;;5078624;28;20032;-76
2023/12/26 10:00:52;;;;;;;0.57;0.57;;;10.10;99.90;;;;;;5061331;28;20900;-75
2023/12/26 10:03:20;;;;;;;1.50;1.42;;;10.20;99.90;;;;;;5077849;28;20039;-76
2023/12/26 10:05:46;;;;;;;4.20;3.95;;;10.40;99.90;;;;;;5080673;28;20033;-76
2023/12/26 10:08:15;;;;;;;0.22;0.22;;;10.50;99.90;;;;;;5081197;28;20035;-75
2023/12/26 10:10:43;;;;;;;0.60;0.60;;;10.40;99.90;;;;;;5079481;28;20013;-75
2023/12/26 10:13:14;;;;;;;0.40;0.40;;;10.70;99.90;;;;;;5078306;28;20617;-76
2023/12/26 10:15:42;;;;;;;6.10;5.78;;;10.90;99.90;;;;;;5077269;28;20679;-76
2023/12/26 10:18:10;;;;;;;0.57;0.57;;;11.20;99.90;;;;;;5059945;28;20954;-76
2023/12/26 10:20:37;;;;;;;0.20;0.20;;;11.10;99.90;;;;;;5071836;28;20544;-76
2023/12/26 10:23:05;;;;;;;0.20;0.20;;;11.40;99.90;;;;;;5071929;28;20505;-75
2023/12/26 10:25:31;;;;;;;0.38;0.38;;;11.70;99.90;;;;;;5069611;28;20029;-77
2023/12/26 10:27:59;;;;;;;0.20;0.20;;;12.00;99.90;;;;;;5074610;28;20036;-76
2023/12/26 10:30:25;;;;;;;0.75;0.75;;;12.30;99.90;;;;;;5062111;28;20056;-82
2023/12/26 10:33:03;;;;;;;1.75;1.65;;;12.30;99.90;;;;;;5058975;28;20032;-76
2023/12/26 10:35:29;;;;;;;1.10;1.05;;;12.30;99.90;;;;;;5060429;28;20116;-82
2023/12/26 10:37:57;;;;;;;0.40;0.40;;;12.30;99.90;;;;;;5080904;28;20733;-80
2023/12/26 10:40:24;;;;;;;0.20;0.20;;;12.50;99.90;;;;;;5085732;28;20024;-79
2023/12/26 10:42:51;;;;;;;2.58;2.38;;;12.50;99.90;;;;;;5099597;28;20016;-79
2023/12/26 10:45:23;;;;;;;0.35;0.35;;;12.60;99.90;;;;;;5081232;28;20019;-76
2023/12/26 10:47:53;;;;;;;2.30;2.20;;;12.80;99.90;;;;;;5098803;28;20022;-76
2023/12/26 10:50:20;;;;;;;1.00;0.98;;;12.90;99.90;;;;;;5098868;28;20019;-78
2023/12/26 10:53:07;;;;;;;2.00;1.85;;;13.10;99.90;;;;;;5099854;28;20024;-76
2023/12/26 10:55:34;;;;;;;1.13;1.13;;;13.20;99.90;;;;;;5081616;28;20024;-76
2023/12/26 10:58:28;;;;;;;1.38;1.30;;;13.30;99.90;;;;;;5103188;28;20692;-79
2023/12/26 11:00:55;;;;;;;16.52;6.55;;;13.40;99.90;;;;;;5084147;28;20058;-90
2023/12/26 13:52:02;;;;;;;5.70;2.55;;;15.30;98.30;;;;;;5118586;28;20035;-82
2023/12/26 13:54:28;;;;;;;1.00;1.00;;;15.30;98.50;;;;;;5119790;28;20030;-81
2023/12/26 13:56:54;;;;;;;0.20;0.20;;;15.30;98.70;;;;;;5123199;28;20023;-82
2023/12/26 13:59:21;;;;;;;0.10;0.10;;;15.30;98.60;;;;;;5124831;28;20023;-85
2023/12/26 14:01:47;;;;;;;0.20;0.20;;;15.30;98.70;;;;;;5122543;28;20019;-78
2023/12/26 14:04:13;;;;;;;0.20;0.20;;;15.40;98.80;;;;;;5121969;28;20098;-85
2023/12/26 14:06:39;;;;;;;0.40;0.38;;;15.40;98.60;;;;;;5119540;28;20019;-78
2023/12/26 14:09:05;;;;;;;0.20;0.20;;;15.40;98.40;;;;;;5119067;28;20027;-75
2023/12/26 14:11:31;;;;;;;0.20;0.20;;;15.30;98.30;;;;;;5120232;28;20012;-83
2023/12/26 14:13:57;;;;;;;0.20;0.20;;;14.80;98.00;;;;;;5119313;27;20043;-80
2023/12/26 14:16:23;;;;;;;0.20;0.20;;;15.20;98.40;;;;;;5119565;28;20693;-80
2023/12/26 14:18:49;;;;;;;0.20;0.20;;;15.20;98.30;;;;;;5119049;28;20027;-78
2023/12/26 14:21:15;;;;;;;0.20;0.20;;;15.20;98.20;;;;;;5119059;28;20015;-75
2023/12/26 14:23:41;;;;;;;0.20;0.20;;;15.10;98.20;;;;;;5119449;28;20023;-88
2023/12/26 14:26:07;;;;;;;0.40;0.40;;;13.90;98.30;;;;;;5120304;28;20119;-80
2023/12/26 14:28:33;;;;;;;0.20;0.20;;;15.10;99.50;;;;;;5113969;28;20122;-86
2023/12/26 14:31:11;;;;;;;0.20;0.20;;;15.00;99.90;;;;;;5102992;28;20749;-78
2023/12/26 14:33:39;;;;;;;0.20;0.20;;;15.50;99.90;;;;;;5086570;28;20027;-85
2023/12/26 14:36:09;;;;;;;0.40;0.40;;;14.70;99.90;;;;;;5088593;28;20774;-78
2023/12/26 14:38:35;;;;;;;0.20;0.20;;;14.50;99.90;;;;;;5102619;28;20092;-83
2023/12/26 14:41:01;;;;;;;0.20;0.20;;;14.30;99.90;;;;;;5102622;28;20015;-77
2023/12/26 14:43:36;;;;;;;0.20;0.20;;;14.10;99.90;;;;;;5104953;27;20015;-90
2023/12/26 14:48:40;;;;;;;0.75;0.75;;;13.80;99.90;;;;;;5047681;22;20119;-78
2023/12/26 14:51:06;;;;;;;0.20;0.20;;;13.70;99.90;;;;;;5041434;28;20640;-77
2023/12/26 14:53:31;;;;;;;3.15;2.95;;;13.40;99.90;;;;;;5041518;28;20655;-81
2023/12/26 14:55:58;;;;;;;0.20;0.20;;;13.20;99.90;;;;;;5039927;28;20025;-81
2023/12/26 14:58:24;;;;;;;0.40;0.40;;;13.00;99.90;;;;;;5039968;28;20025;-87
2023/12/26 15:00:50;;;;;;;0.20;0.20;;;12.90;99.90;;;;;;5030916;28;20030;-78
2023/12/26 15:03:16;;;;;;;0.85;0.82;;;12.70;99.90;;;;;;5021100;28;20030;-79
2023/12/26 15:05:42;;;;;;;0.60;0.60;;;12.50;99.90;;;;;;5022515;28;20117;-80
2023/12/26 15:08:08;;;;;;;3.50;3.20;;;12.50;99.90;;;;;;5022181;28;20088;-75
2023/12/26 15:10:36;;;;;;;0.22;0.22;;;12.20;99.90;;;;;;5030750;28;20028;-82
2023/12/26 15:13:02;;;;;;;0.50;0.50;;;12.10;99.90;;;;;;5032484;28;20022;-75
2023/12/26 15:15:28;;;;;;;0.30;0.30;;;12.10;99.90;;;;;;5048398;28;20562;-75
2023/12/26 15:18:00;;;;;;;0.20;0.20;;;12.10;99.90;;;;;;5054547;28;20155;-76
2023/12/26 15:20:36;;;;;;;0.35;0.35;;;10.50;99.90;;;;;;5060621;28;20032;-77
2023/12/26 15:23:02;;;;;;;2.92;2.83;;;11.90;99.90;;;;;;5059701;28;20017;-77
2023/12/26 15:25:35;;;;;;;0.28;0.28;;;11.90;99.90;;;;;;5064269;28;20040;-82
2023/12/26 15:28:10;;;;;;;0.20;0.20;;;11.70;99.90;;;;;;5061527;28;20047;-77
2023/12/26 15:30:37;;;;;;;0.70;0.68;;;12.00;99.90;;;;;;5060883;28;20098;-76
2023/12/26 15:33:09;;;;;;;0.20;0.20;;;11.60;99.90;;;;;;5060022;28;20079;-80
2023/12/26 15:35:36;;;;;;;0.17;0.17;;;11.50;99.90;;;;;;5061652;28;20025;-76
2023/12/26 15:38:07;;;;;;;0.63;0.63;;;11.40;99.90;;;;;;5060381;28;20029;-79
2023/12/26 15:40:33;;;;;;;0.20;0.20;;;11.30;99.90;;;;;;5041693;28;20033;-74
2023/12/26 15:42:59;;;;;;;0.20;0.20;;;11.20;99.90;;;;;;5058811;28;20406;-76
2023/12/26 15:45:31;;;;;;;0.20;0.20;;;11.20;99.90;;;;;;5065187;28;20040;-75
2023/12/26 15:48:01;;;;;;;0.20;0.20;;;11.20;99.90;;;;;;5076318;28;20092;-75
2023/12/26 15:50:32;;;;;;;0.20;0.20;;;10.10;99.90;;;;;;5065592;28;20017;-77